createdAt,value
2023-04-26T00:00:36.451Z,4.95
2023-04-26T00:03:04.466Z,4.78
2023-04-26T00:05:31.631Z,4.55
2023-04-26T00:07:58.766Z,4.72
2023-04-26T00:10:25.618Z,3.97
2023-04-26T00:12:52.732Z,4.90
2023-04-26T00:15:19.641Z,6.22
2023-04-26T00:17:47.252Z,5.28
2023-04-26T00:20:14.257Z,4.90
2023-04-26T00:22:41.069Z,5.13
2023-04-26T00:25:08.384Z,4.88
2023-04-26T00:27:35.376Z,5.07
2023-04-26T00:30:02.205Z,4.47
2023-04-26T00:32:31.001Z,4.85
2023-04-26T00:34:57.896Z,4.25
2023-04-26T00:37:24.956Z,3.75
2023-04-26T00:39:51.837Z,4.75
2023-04-26T00:42:19.461Z,4.50
2023-04-26T00:44:46.436Z,5.95
2023-04-26T00:47:13.693Z,5.10
2023-04-26T00:49:40.755Z,4.53
2023-04-26T00:52:08.030Z,4.85
2023-04-26T00:54:34.969Z,5.15
2023-04-26T00:57:02.648Z,3.92
2023-04-26T00:59:29.577Z,4.75
2023-04-26T01:01:57.719Z,4.55
2023-04-26T01:04:27.415Z,4.63
2023-04-26T01:06:55.175Z,4.82
2023-04-26T01:09:22.394Z,4.38
2023-04-26T01:11:49.665Z,4.93
2023-04-26T01:14:16.637Z,4.35
2023-04-26T01:16:46.964Z,4.97
2023-04-26T01:19:14.028Z,4.80
2023-04-26T01:21:41.581Z,5.45
2023-04-26T01:24:13.457Z,3.97
2023-04-26T01:26:45.669Z,4.72
2023-04-26T01:29:21.458Z,4.93
2023-04-26T01:31:49.116Z,4.43
2023-04-26T01:34:16.490Z,5.15
2023-04-26T01:36:43.495Z,4.93
2023-04-26T01:39:10.388Z,4.28
2023-04-26T01:41:37.536Z,4.30
2023-04-26T01:44:04.649Z,4.88
2023-04-26T01:46:31.599Z,4.05
2023-04-26T01:48:58.572Z,4.78
2023-04-26T01:51:25.550Z,5.00
2023-04-26T01:53:52.513Z,5.03
2023-04-26T01:56:20.220Z,4.30
2023-04-26T01:58:47.510Z,5.65
2023-04-26T02:01:14.503Z,4.18
2023-04-26T02:03:41.432Z,3.83
2023-04-26T02:06:08.461Z,4.35
2023-04-26T02:08:36.000Z,4.47
2023-04-26T02:11:02.843Z,4.40
2023-04-26T02:13:30.144Z,4.13
2023-04-26T02:15:57.062Z,5.10
2023-04-26T02:18:24.577Z,4.35
2023-04-26T02:20:51.530Z,5.40
2023-04-26T02:23:18.403Z,4.82
2023-04-26T02:25:47.557Z,4.78
2023-04-26T02:28:16.210Z,4.68
2023-04-26T02:30:43.287Z,4.37
2023-04-26T02:33:10.461Z,4.25
2023-04-26T02:35:37.798Z,4.18
2023-04-26T02:38:05.042Z,4.28
2023-04-26T02:40:31.959Z,4.35
2023-04-26T02:42:58.743Z,6.13
2023-04-26T02:45:25.616Z,4.43
2023-04-26T02:47:52.553Z,4.32
2023-04-26T02:50:19.527Z,4.95
2023-04-26T02:52:46.383Z,5.40
2023-04-26T02:55:13.342Z,4.13
2023-04-26T02:57:40.209Z,3.90
2023-04-26T03:00:08.209Z,3.92
2023-04-26T03:02:35.197Z,4.20
2023-04-26T03:05:02.603Z,4.75
2023-04-26T03:07:29.512Z,4.50
2023-04-26T03:09:56.465Z,4.25
2023-04-26T03:12:23.278Z,4.47
2023-04-26T03:14:50.097Z,4.40
2023-04-26T03:17:16.925Z,5.28
2023-04-26T03:19:43.765Z,4.00
2023-04-26T03:22:12.417Z,4.82
2023-04-26T03:24:39.296Z,4.30
2023-04-26T03:27:06.144Z,4.13
2023-04-26T03:29:33.005Z,4.50
2023-04-26T03:31:59.882Z,4.60
2023-04-26T03:34:27.466Z,4.68
2023-04-26T03:36:54.413Z,4.20
2023-04-26T03:39:22.010Z,4.30
2023-04-26T03:41:48.981Z,4.68
2023-04-26T03:44:15.846Z,4.22
2023-04-26T03:46:43.212Z,4.45
2023-04-26T03:49:10.072Z,4.45
2023-04-26T03:51:36.975Z,4.55
2023-04-26T03:54:04.830Z,4.30
2023-04-26T03:56:31.659Z,4.68
2023-04-26T03:58:58.508Z,4.00
2023-04-26T04:01:25.881Z,3.45
2023-04-26T04:03:53.059Z,4.07
2023-04-26T04:06:20.118Z,4.78
2023-04-26T04:08:46.964Z,4.10
2023-04-26T04:11:13.758Z,4.95
2023-04-26T04:13:40.574Z,4.22
2023-04-26T04:16:10.188Z,4.13
2023-04-26T04:18:37.229Z,3.47
2023-04-26T04:21:04.290Z,4.65
2023-04-26T04:23:31.183Z,4.00
2023-04-26T04:25:58.314Z,5.68
2023-04-26T04:28:25.191Z,3.42
2023-04-26T04:30:51.996Z,3.45
2023-04-26T04:33:19.184Z,3.63
2023-04-26T04:35:46.207Z,3.53
2023-04-26T04:38:13.283Z,4.20
2023-04-26T04:40:40.119Z,3.85
2023-04-26T04:43:06.986Z,4.10
2023-04-26T04:45:33.903Z,4.47
2023-04-26T04:48:00.848Z,4.32
2023-04-26T04:50:28.157Z,3.83
2023-04-26T04:52:55.018Z,4.07
2023-04-26T04:55:21.954Z,5.15
2023-04-26T04:57:48.838Z,4.13
2023-04-26T05:00:16.336Z,4.07
2023-04-26T05:02:43.318Z,4.38
2023-04-26T05:05:11.190Z,4.60
2023-04-26T05:07:38.274Z,4.20
2023-04-26T05:10:05.546Z,5.15
2023-04-26T05:12:33.520Z,4.75
2023-04-26T05:15:00.336Z,4.70
2023-04-26T05:17:27.205Z,5.00
2023-04-26T05:19:54.127Z,4.90
2023-04-26T05:22:22.317Z,4.88
2023-04-26T05:24:49.764Z,4.80
2023-04-26T05:27:16.902Z,5.05
2023-04-26T05:29:43.930Z,4.85
2023-04-26T05:32:10.875Z,4.72
2023-04-26T05:34:38.633Z,5.45
2023-04-26T05:37:05.580Z,4.47
2023-04-26T05:39:32.468Z,4.38
2023-04-26T05:41:59.326Z,4.22
2023-04-26T05:44:26.212Z,4.70
2023-04-26T05:46:53.274Z,4.70
2023-04-26T05:49:20.439Z,4.47
2023-04-26T05:51:47.247Z,4.68
2023-04-26T05:54:14.166Z,4.30
2023-04-26T05:56:41.107Z,4.68
2023-04-26T05:59:08.886Z,4.13
2023-04-26T06:01:35.832Z,4.40
2023-04-26T06:04:03.069Z,4.20
2023-04-26T06:06:30.086Z,4.60
2023-04-26T06:08:56.974Z,5.35
2023-04-26T06:11:23.827Z,4.38
2023-04-26T06:13:51.109Z,4.20
2023-04-26T06:16:18.485Z,4.55
2023-04-26T06:18:45.411Z,5.07
2023-04-26T06:21:12.211Z,4.97
2023-04-26T06:23:39.038Z,5.15
2023-04-26T06:26:06.093Z,4.35
2023-04-26T06:28:32.946Z,4.03
2023-04-26T06:30:59.835Z,4.68
2023-04-26T06:33:26.817Z,4.03
2023-04-26T06:35:53.636Z,4.10
2023-04-26T06:38:20.479Z,4.72
2023-04-26T06:40:47.315Z,3.90
2023-04-26T06:43:14.174Z,4.43
2023-04-26T06:45:42.809Z,4.55
2023-04-26T06:48:10.492Z,3.35
2023-04-26T06:50:40.452Z,4.05
2023-04-26T06:53:08.424Z,3.45
2023-04-26T06:55:35.310Z,4.53
2023-04-26T06:58:02.402Z,4.00
2023-04-26T07:00:30.124Z,4.05
2023-04-26T07:02:57.473Z,3.67
2023-04-26T07:05:24.376Z,4.10
2023-04-26T07:07:51.310Z,3.88
2023-04-26T07:10:18.225Z,4.10
2023-04-26T07:12:45.328Z,4.05
2023-04-26T07:15:12.386Z,3.75
2023-04-26T07:17:39.312Z,3.50
2023-04-26T07:20:07.011Z,3.22
2023-04-26T07:22:33.938Z,3.08
2023-04-26T07:25:00.877Z,3.67
2023-04-26T07:27:27.781Z,3.40
2023-04-26T07:29:56.107Z,2.90
2023-04-26T07:32:23.435Z,4.25
2023-04-26T07:34:50.352Z,3.42
2023-04-26T07:37:17.196Z,2.90
2023-04-26T07:39:44.125Z,3.40
2023-04-26T07:42:11.041Z,3.50
2023-04-26T07:44:37.863Z,3.50
2023-04-26T07:47:04.796Z,3.47
2023-04-26T07:49:31.749Z,4.07
2023-04-26T07:52:02.114Z,3.53
2023-04-26T07:54:29.103Z,4.00
2023-04-26T07:56:56.011Z,3.70
2023-04-26T07:59:23.972Z,3.95
2023-04-26T08:01:51.283Z,3.78
2023-04-26T08:04:30.041Z,3.45
2023-04-26T08:06:57.187Z,3.70
2023-04-26T08:09:24.032Z,3.67
2023-04-26T08:11:51.067Z,3.00
2023-04-26T08:14:17.941Z,3.08
2023-04-26T08:16:44.877Z,2.60
2023-04-26T08:19:11.753Z,2.78
2023-04-26T08:21:38.729Z,2.65
2023-04-26T08:24:05.893Z,2.78
2023-04-26T08:26:32.759Z,2.75
2023-04-26T08:29:00.002Z,2.92
2023-04-26T08:31:27.237Z,2.85
2023-04-26T08:33:54.374Z,2.50
2023-04-26T08:36:21.496Z,2.80
2023-04-26T08:38:48.341Z,2.75
2023-04-26T08:41:21.549Z,2.70
2023-04-26T08:43:49.744Z,3.50
2023-04-26T08:46:19.503Z,2.75
2023-04-26T08:48:58.666Z,3.47
2023-04-26T08:51:27.412Z,2.67
2023-04-26T08:53:56.356Z,3.03
2023-04-26T08:56:24.226Z,3.15
2023-04-26T08:58:52.020Z,2.53
2023-04-26T09:01:21.744Z,3.90
2023-04-26T09:03:48.889Z,2.83
2023-04-26T09:06:17.581Z,3.00
2023-04-26T09:08:44.794Z,2.70
2023-04-26T09:11:11.630Z,3.13
2023-04-26T09:13:38.498Z,2.60
2023-04-26T09:16:05.819Z,2.65
2023-04-26T09:18:34.035Z,3.50
2023-04-26T09:21:04.147Z,3.10
2023-04-26T09:23:32.100Z,2.70
2023-04-26T09:26:17.583Z,2.97
2023-04-26T09:28:46.326Z,3.17
2023-04-26T09:31:37.294Z,2.90
2023-04-26T09:34:04.287Z,2.25
2023-04-26T09:36:32.242Z,3.50
2023-04-26T09:38:59.283Z,2.47
2023-04-26T09:41:43.859Z,2.38
2023-04-26T09:44:24.322Z,2.10
2023-04-26T09:47:05.649Z,2.38
2023-04-26T09:49:44.763Z,3.03
2023-04-26T09:52:11.660Z,2.22
2023-04-26T09:54:44.096Z,3.08
2023-04-26T09:57:13.167Z,2.65
2023-04-26T09:59:41.394Z,2.38
2023-04-26T10:02:14.536Z,2.47
2023-04-26T10:04:44.495Z,2.08
2023-04-26T10:07:12.760Z,2.70
2023-04-26T10:09:41.518Z,2.55
2023-04-26T10:12:13.665Z,2.38
2023-04-26T10:14:41.639Z,2.65
2023-04-26T10:17:08.649Z,2.25
2023-04-26T10:19:37.182Z,2.38
2023-04-26T10:22:20.975Z,2.58
2023-04-26T10:24:49.234Z,2.50
2023-04-26T10:27:16.340Z,2.92
2023-04-26T10:29:55.704Z,2.90
2023-04-26T10:32:24.086Z,2.35
2023-04-26T10:35:24.621Z,3.00
2023-04-26T10:38:03.715Z,2.70
2023-04-26T10:40:39.958Z,2.65
2023-04-26T10:43:15.731Z,2.83
2023-04-26T10:45:44.120Z,2.88
2023-04-26T10:48:29.929Z,2.85
2023-04-26T10:51:04.322Z,2.40
2023-04-26T10:53:46.470Z,2.00
2023-04-26T10:56:39.759Z,2.05
2023-04-26T11:01:41.942Z,2.72
2023-04-26T11:04:13.182Z,3.05
2023-04-26T11:06:49.727Z,2.38
2023-04-26T11:09:42.483Z,3.53
2023-04-26T11:12:14.169Z,3.85
2023-04-26T11:14:45.730Z,1.88
2023-04-26T11:17:13.451Z,2.25
2023-04-26T11:19:41.956Z,1.60
2023-04-26T11:22:09.326Z,1.87
2023-04-26T11:24:36.912Z,1.95
2023-04-26T11:27:11.409Z,2.25
2023-04-26T11:29:39.151Z,2.15
2023-04-26T11:32:06.890Z,2.05
2023-04-26T11:34:35.208Z,1.25
2023-04-26T11:37:02.947Z,1.98
2023-04-26T11:39:34.958Z,2.47
2023-04-26T11:42:06.755Z,2.60
2023-04-26T11:44:34.337Z,2.00
2023-04-26T11:47:08.044Z,2.75
2023-04-26T11:49:37.585Z,1.95
2023-04-26T11:52:06.035Z,2.05
2023-04-26T11:54:35.073Z,1.98
2023-04-26T11:57:15.368Z,2.13
2023-04-26T11:59:44.339Z,2.00
2023-04-26T12:02:11.780Z,2.10
2023-04-26T12:04:40.901Z,1.80
2023-04-26T12:07:08.543Z,1.90
2023-04-26T12:09:36.688Z,2.35
2023-04-26T12:12:06.493Z,2.03
2023-04-26T12:14:34.565Z,1.83
2023-04-26T12:17:03.216Z,1.80
2023-04-26T12:19:37.249Z,1.90
2023-04-26T12:22:05.114Z,2.00
2023-04-26T12:24:38.968Z,1.95
2023-04-26T12:27:07.379Z,2.08
2023-04-26T12:29:34.777Z,2.25
2023-04-26T12:32:02.656Z,2.10
2023-04-26T12:34:29.836Z,1.80
2023-04-26T12:36:56.763Z,1.90
2023-04-26T12:39:23.734Z,2.20
2023-04-26T12:41:50.634Z,2.10
2023-04-26T12:44:20.349Z,1.98
2023-04-26T12:46:48.406Z,3.40
2023-04-26T12:49:15.394Z,3.17
2023-04-26T12:51:42.433Z,2.17
2023-04-26T12:54:09.532Z,2.30
2023-04-26T12:56:40.792Z,2.15
2023-04-26T12:59:08.114Z,2.42
2023-04-26T13:01:35.078Z,2.35
2023-04-26T13:04:04.709Z,2.15
2023-04-26T13:06:32.460Z,2.38
2023-04-26T13:08:59.533Z,2.40
2023-04-26T13:11:26.490Z,2.75
2023-04-26T13:13:53.418Z,2.78
2023-04-26T13:16:20.507Z,2.78
2023-04-26T13:18:47.390Z,2.25
2023-04-26T13:21:14.218Z,2.58
2023-04-26T13:23:41.331Z,2.70
2023-04-26T13:26:08.339Z,2.85
2023-04-26T13:28:36.944Z,2.50
2023-04-26T13:31:04.016Z,3.00
2023-04-26T13:33:30.956Z,2.63
2023-04-26T13:35:57.997Z,2.88
2023-04-26T13:38:26.920Z,2.90
2023-04-26T13:40:54.032Z,2.45
2023-04-26T13:43:20.947Z,2.40
2023-04-26T13:45:47.911Z,2.17
2023-04-26T13:48:15.025Z,2.83
2023-04-26T13:50:42.223Z,2.38
2023-04-26T13:53:09.395Z,2.40
2023-04-26T13:55:36.475Z,2.85
2023-04-26T13:58:03.368Z,2.78
2023-04-26T14:00:30.315Z,2.80
2023-04-26T14:02:57.415Z,2.83
2023-04-26T14:05:25.750Z,2.20
2023-04-26T14:07:54.937Z,2.45
2023-04-26T14:10:22.258Z,2.90
2023-04-26T14:12:49.246Z,2.67
2023-04-26T14:15:16.763Z,2.88
2023-04-26T14:17:46.760Z,2.50
2023-04-26T14:20:13.737Z,2.50
2023-04-26T14:22:40.782Z,2.75
2023-04-26T14:25:08.090Z,3.30
2023-04-26T14:27:35.607Z,2.38
2023-04-26T14:30:02.517Z,2.70
2023-04-26T14:32:29.362Z,2.40
2023-04-26T14:34:56.328Z,2.50
2023-04-26T14:37:23.999Z,2.83
2023-04-26T14:39:51.558Z,2.35
2023-04-26T14:42:18.688Z,2.60
2023-04-26T14:44:46.660Z,2.40
2023-04-26T14:47:13.608Z,2.70
2023-04-26T14:49:41.207Z,2.70
2023-04-26T14:52:08.078Z,2.50
2023-04-26T14:54:39.272Z,2.70
2023-04-26T14:57:06.290Z,2.63
2023-04-26T14:59:33.583Z,2.17
2023-04-26T15:02:00.617Z,2.00
2023-04-26T15:04:27.976Z,2.53
2023-04-26T15:06:55.261Z,3.28
2023-04-26T15:09:22.376Z,3.13
2023-04-26T15:11:49.244Z,2.83
2023-04-26T15:14:16.336Z,2.63
2023-04-26T15:16:43.332Z,2.40
2023-04-26T15:19:10.293Z,2.83
2023-04-26T15:21:37.232Z,2.50
2023-04-26T15:24:04.587Z,2.95
2023-04-26T15:26:31.513Z,2.63
2023-04-26T15:28:58.381Z,2.95
2023-04-26T15:31:25.302Z,2.22
2023-04-26T15:33:56.436Z,2.35
2023-04-26T15:36:23.294Z,2.97
2023-04-26T15:38:50.442Z,2.75
2023-04-26T15:41:17.410Z,2.60
2023-04-26T15:43:44.325Z,2.50
2023-04-26T15:46:14.969Z,2.30
2023-04-26T15:48:41.878Z,2.13
2023-04-26T15:51:08.812Z,2.20
2023-04-26T15:53:39.204Z,2.22
2023-04-26T15:56:19.587Z,2.90
2023-04-26T15:58:47.411Z,3.13
2023-04-26T16:01:15.305Z,2.50
2023-04-26T16:03:46.504Z,2.55
2023-04-26T16:06:14.471Z,2.47
2023-04-26T16:08:41.535Z,2.75
2023-04-26T16:11:08.380Z,2.50
2023-04-26T16:13:35.280Z,2.53
2023-04-26T16:16:02.186Z,2.60
2023-04-26T16:18:29.111Z,2.50
2023-04-26T16:21:04.770Z,2.35
2023-04-26T16:23:31.756Z,3.38
2023-04-26T16:25:58.753Z,2.85
2023-04-26T16:28:25.705Z,2.65
2023-04-26T16:30:53.060Z,2.22
2023-04-26T16:33:22.762Z,2.58
2023-04-26T16:35:52.161Z,2.40
2023-04-26T16:38:23.067Z,2.10
2023-04-26T16:41:01.487Z,2.45
2023-04-26T16:43:29.725Z,2.63
2023-04-26T16:46:03.766Z,2.58
2023-04-26T16:48:31.543Z,2.63
2023-04-26T16:50:59.519Z,2.58
2023-04-26T16:53:26.587Z,2.50
2023-04-26T16:55:53.717Z,2.97
2023-04-26T16:58:20.822Z,2.65
2023-04-26T17:00:47.851Z,3.17
2023-04-26T17:03:15.260Z,2.90
2023-04-26T17:05:44.374Z,2.45
2023-04-26T17:08:11.929Z,2.70
2023-04-26T17:10:39.304Z,2.70
2023-04-26T17:13:07.503Z,2.80
2023-04-26T17:15:34.870Z,2.70
2023-04-26T17:18:04.380Z,2.50
2023-04-26T17:20:32.876Z,2.28
2023-04-26T17:23:00.846Z,2.38
2023-04-26T17:25:28.336Z,2.30
2023-04-26T17:27:55.443Z,2.25
2023-04-26T17:30:23.312Z,2.90
2023-04-26T17:32:50.272Z,2.22
2023-04-26T17:35:17.310Z,2.50
2023-04-26T17:37:49.564Z,2.50
2023-04-26T17:40:18.005Z,2.30
2023-04-26T17:42:46.163Z,2.00
2023-04-26T17:45:14.399Z,2.60
2023-04-26T17:47:42.410Z,2.33
2023-04-26T17:50:09.946Z,2.17
2023-04-26T17:52:37.225Z,2.80
2023-04-26T17:55:05.997Z,2.53
2023-04-26T17:57:32.902Z,2.20
2023-04-26T17:59:59.746Z,2.38
2023-04-26T18:02:26.931Z,2.08
2023-04-26T18:04:55.031Z,2.60
2023-04-26T18:07:22.123Z,2.45
2023-04-26T18:09:49.081Z,2.22
2023-04-26T18:12:16.082Z,2.67
2023-04-26T18:14:45.896Z,2.40
2023-04-26T18:17:13.601Z,2.17
2023-04-26T18:19:41.330Z,2.50
2023-04-26T18:22:08.894Z,2.35
2023-04-26T18:24:35.867Z,2.25
2023-04-26T18:27:03.170Z,2.33
2023-04-26T18:29:30.481Z,2.78
2023-04-26T18:31:57.498Z,2.30
2023-04-26T18:34:24.606Z,2.67
2023-04-26T18:36:51.503Z,2.45
2023-04-26T18:39:18.465Z,2.33
2023-04-26T18:41:45.602Z,2.35
2023-04-26T18:44:15.240Z,2.25
2023-04-26T18:46:43.241Z,2.40
2023-04-26T18:49:10.409Z,2.20
2023-04-26T18:51:37.282Z,2.25
2023-04-26T18:54:04.678Z,2.33
2023-04-26T18:56:31.918Z,2.42
2023-04-26T18:58:58.851Z,2.50
2023-04-26T19:01:25.804Z,2.67
2023-04-26T19:03:53.059Z,2.58
2023-04-26T19:06:20.147Z,2.33
2023-04-26T19:08:47.163Z,2.85
2023-04-26T19:11:14.375Z,2.00
2023-04-26T19:13:41.579Z,2.40
2023-04-26T19:16:09.273Z,2.50
2023-04-26T19:18:37.133Z,2.08
2023-04-26T19:21:05.322Z,2.22
2023-04-26T19:23:32.359Z,2.53
2023-04-26T19:26:10.001Z,2.30
2023-04-26T19:28:37.947Z,2.88
2023-04-26T19:31:04.959Z,2.45
2023-04-26T19:33:32.882Z,2.58
2023-04-26T19:35:59.734Z,2.40
2023-04-26T19:38:26.619Z,2.70
2023-04-26T19:40:53.619Z,2.53
2023-04-26T19:43:21.114Z,2.80
2023-04-26T19:45:48.138Z,2.70
2023-04-26T19:48:15.129Z,2.58
2023-04-26T19:50:43.711Z,2.60
2023-04-26T19:53:13.181Z,2.63
2023-04-26T19:55:41.554Z,2.70
2023-04-26T19:58:10.371Z,2.78
2023-04-26T20:00:38.685Z,2.65
2023-04-26T20:03:06.583Z,3.37
2023-04-26T20:05:34.253Z,2.60
2023-04-26T20:08:01.838Z,2.70
2023-04-26T20:10:33.593Z,2.97
2023-04-26T20:13:00.929Z,2.60
2023-04-26T20:15:29.345Z,2.53
2023-04-26T20:20:24.507Z,2.42
2023-04-26T20:22:51.363Z,2.70
2023-04-26T20:25:19.969Z,2.60
2023-04-26T20:27:47.795Z,2.58
2023-04-26T20:30:15.703Z,2.75
2023-04-26T20:32:43.018Z,3.10
2023-04-26T20:35:10.328Z,2.95
2023-04-26T20:37:37.272Z,3.90
2023-04-26T20:40:05.042Z,2.80
2023-04-26T20:42:32.010Z,3.30
2023-04-26T20:45:01.809Z,3.25
2023-04-26T20:47:29.555Z,2.60
2023-04-26T20:49:56.639Z,2.85
2023-04-26T20:52:23.583Z,2.50
2023-04-26T20:54:50.359Z,2.85
2023-04-26T20:57:17.362Z,3.05
2023-04-26T20:59:44.246Z,3.70
2023-04-26T21:02:11.613Z,3.42
2023-04-26T21:04:41.687Z,3.60
2023-04-26T21:07:09.966Z,3.10
2023-04-26T21:09:37.079Z,3.22
2023-04-26T21:12:04.521Z,3.28
2023-04-26T21:14:31.756Z,3.47
2023-04-26T21:16:58.721Z,3.13
2023-04-26T21:19:25.652Z,3.25
2023-04-26T21:21:52.830Z,3.70
2023-04-26T21:24:19.665Z,4.00
2023-04-26T21:26:46.600Z,3.38
2023-04-26T21:29:13.515Z,3.70
2023-04-26T21:31:40.493Z,3.80
2023-04-26T21:34:07.375Z,3.47
2023-04-26T21:36:34.197Z,4.07
2023-04-26T21:39:01.393Z,3.60
2023-04-26T21:41:28.356Z,3.90
2023-04-26T21:43:56.029Z,3.50
2023-04-26T21:46:23.051Z,3.80
2023-04-26T21:48:49.983Z,3.58
2023-04-26T21:51:17.350Z,3.28
2023-04-26T21:53:44.142Z,3.80
2023-04-26T21:56:11.214Z,3.00
2023-04-26T21:58:38.104Z,3.28
2023-04-26T22:01:12.581Z,3.00
2023-04-26T22:03:40.098Z,3.22
2023-04-26T22:06:08.196Z,3.17
2023-04-26T22:08:35.554Z,3.42
2023-04-26T22:11:03.159Z,3.13
2023-04-26T22:13:31.370Z,3.42
2023-04-26T22:15:58.355Z,3.70
2023-04-26T22:18:29.409Z,3.88
2023-04-26T22:20:56.683Z,3.80
2023-04-26T22:23:23.659Z,3.78
2023-04-26T22:25:50.461Z,3.42
2023-04-26T22:28:17.373Z,3.55
2023-04-26T22:30:44.451Z,3.50
2023-04-26T22:33:12.381Z,3.38
2023-04-26T22:35:39.575Z,3.42
2023-04-26T22:38:06.545Z,3.28
2023-04-26T22:40:33.436Z,3.78
2023-04-26T22:43:00.434Z,3.90
2023-04-26T22:45:27.328Z,4.28
2023-04-26T22:47:54.314Z,4.10
2023-04-26T22:50:21.539Z,4.20
2023-04-26T22:52:49.749Z,4.07
2023-04-26T22:55:17.205Z,4.65
2023-04-26T22:57:44.092Z,5.20
2023-04-26T23:00:12.735Z,3.60
2023-04-26T23:02:40.112Z,4.60
2023-04-26T23:05:10.797Z,3.95
2023-04-26T23:07:39.133Z,4.80
2023-04-26T23:10:06.828Z,4.40
2023-04-26T23:12:33.673Z,4.05
2023-04-26T23:15:00.559Z,4.95
2023-04-26T23:17:27.664Z,4.40
2023-04-26T23:19:54.649Z,4.90
2023-04-26T23:22:21.666Z,7.30
2023-04-26T23:24:48.454Z,7.32
2023-04-26T23:27:15.482Z,4.65
2023-04-26T23:29:42.348Z,5.45
2023-04-26T23:32:09.158Z,5.55
2023-04-26T23:34:36.098Z,8.35
2023-04-26T23:37:07.904Z,6.65
2023-04-26T23:39:36.072Z,6.97
2023-04-26T23:42:04.057Z,8.25
2023-04-26T23:44:30.999Z,6.22
2023-04-26T23:46:57.841Z,5.78
2023-04-26T23:49:24.809Z,5.28
2023-04-26T23:51:51.696Z,6.18
2023-04-26T23:54:18.700Z,6.35
2023-04-26T23:56:45.571Z,5.88
2023-04-26T23:59:12.751Z,5.22
